Time;durP1;ratioP1;P1;durP2;ratioP2;P2;SDS_P1;SDS_P2;PMS_P1;PMS_P2;Temp;Humidity;BMP_temperature;BMP_pressure;BME280_temperature;BME280_humidity;BME280_pressure;Samples;Min_cycle;Max_cycle;Signal;HPM_P1;HPM_P2
2022/11/12 00:01:11;;;;;;;25.83;22.50;;;;;;;9.60;69.30;96248.72;4921720;29;20228;-72
2022/11/12 00:03:37;;;;;;;26.37;22.63;;;;;;;9.54;69.38;96257.03;4926279;29;20186;-71
2022/11/12 00:06:03;;;;;;;27.03;23.40;;;;;;;9.54;69.81;96246.53;4932501;29;20280;-71
2022/11/12 00:08:28;;;;;;;28.20;25.07;;;;;;;9.60;69.94;96232.97;4915468;29;20195;-71
2022/11/12 00:10:58;;;;;;;27.87;23.13;;;;;;;9.53;70.14;96234.38;4925842;29;20206;-70
2022/11/12 00:13:24;;;;;;;26.65;23.77;;;;;;;9.55;69.88;96237.72;4928939;29;20536;-70
2022/11/12 00:15:49;;;;;;;26.77;23.90;;;;;;;9.35;70.57;96230.50;4932859;29;20213;-68
2022/11/12 00:18:15;;;;;;;26.47;23.60;;;;;;;9.36;70.60;96238.28;4931796;29;20657;-71
2022/11/12 00:20:40;;;;;;;26.10;23.00;;;;;;;9.45;70.75;96242.00;4931019;29;20562;-71
2022/11/12 00:23:05;;;;;;;27.80;23.93;;;;;;;9.50;70.43;96235.44;4928387;29;20546;-69
2022/11/12 00:25:31;;;;;;;26.63;23.37;;;;;;;9.60;70.26;96235.59;4927662;29;20828;-71
2022/11/12 00:28:05;;;;;;;27.93;24.40;;;;;;;9.69;69.87;96255.91;4927283;29;20218;-69
2022/11/12 00:30:30;;;;;;;28.77;24.70;;;;;;;9.61;70.17;96253.00;4925046;29;20185;-71
2022/11/12 00:32:56;;;;;;;29.60;24.13;;;;;;;9.62;69.87;96249.44;4929066;29;20652;-71
2022/11/12 00:35:22;;;;;;;29.37;25.77;;;;;;;9.54;70.38;96249.16;4945288;29;20194;-71
2022/11/12 00:37:52;;;;;;;27.53;24.30;;;;;;;9.58;70.39;96247.16;4930555;29;20200;-71
2022/11/12 00:40:18;;;;;;;28.53;24.53;;;;;;;9.58;69.76;96234.03;4930317;29;20185;-71
2022/11/12 00:42:43;;;;;;;28.13;24.57;;;;;;;9.54;70.02;96241.28;4930247;29;20196;-71
2022/11/12 00:45:09;;;;;;;26.70;23.83;;;;;;;9.51;70.32;96244.16;4932700;29;20322;-71
2022/11/12 00:47:34;;;;;;;29.33;24.17;;;;;;;9.49;70.69;96240.81;4929732;29;20360;-70
2022/11/12 00:50:00;;;;;;;31.43;25.50;;;;;;;9.66;69.59;96243.00;4932428;29;20551;-70
2022/11/12 00:52:25;;;;;;;29.00;24.77;;;;;;;9.56;70.04;96242.00;4930071;29;20549;-70
2022/11/12 00:54:52;;;;;;;29.07;25.40;;;;;;;9.52;70.61;96243.22;4932689;29;20188;-71
2022/11/12 00:57:17;;;;;;;26.47;23.57;;;;;;;9.62;70.31;96236.31;4946371;29;20269;-70
2022/11/12 00:59:43;;;;;;;28.07;24.93;;;;;;;9.55;70.49;96235.09;4929078;29;20193;-70
2022/11/12 01:02:08;;;;;;;30.13;24.50;;;;;;;9.53;70.63;96223.03;4932737;29;20200;-70
2022/11/12 01:04:34;;;;;;;29.40;24.03;;;;;;;9.46;71.04;96220.03;4943030;29;20189;-70
2022/11/12 01:06:59;;;;;;;28.23;25.23;;;;;;;9.51;70.50;96210.00;4931995;29;20218;-69
2022/11/12 01:09:25;;;;;;;28.93;24.07;;;;;;;9.57;70.00;96214.81;4931548;29;20200;-70
2022/11/12 01:11:50;;;;;;;29.70;24.77;;;;;;;9.62;69.41;96223.19;4932509;29;20628;-70
2022/11/12 01:14:15;;;;;;;30.63;24.83;;;;;;;9.56;69.81;96228.88;4931072;29;20200;-70
2022/11/12 01:16:41;;;;;;;28.47;24.63;;;;;;;9.55;70.02;96232.47;4926837;29;20628;-70
2022/11/12 01:19:09;;;;;;;29.40;23.80;;;;;;;9.38;70.33;96222.38;4928849;29;20689;-70
2022/11/12 01:21:41;;;;;;;27.60;24.23;;;;;;;9.35;70.43;96215.59;4930613;29;20236;-69
2022/11/12 01:24:08;;;;;;;30.77;24.67;;;;;;;9.40;70.47;96223.94;4930495;29;20207;-70
2022/11/12 01:26:33;;;;;;;27.40;24.03;;;;;;;9.49;70.05;96225.91;4929164;29;20225;-69
2022/11/12 01:28:59;;;;;;;28.20;24.20;;;;;;;9.45;70.40;96223.63;4931328;29;20649;-69
2022/11/12 01:31:36;;;;;;;28.00;24.43;;;;;;;9.37;70.35;96216.31;4927668;29;20190;-70
2022/11/12 01:34:04;;;;;;;29.40;23.37;;;;;;;9.39;70.30;96226.72;4933285;29;20193;-70
2022/11/12 01:36:33;;;;;;;26.67;22.73;;;;;;;9.49;70.03;96218.03;4932542;29;20253;-74
2022/11/12 01:38:58;;;;;;;25.73;22.87;;;;;;;9.37;70.16;96216.31;4932403;29;20258;-69
2022/11/12 01:41:29;;;;;;;25.23;22.20;;;;;;;9.44;70.13;96217.53;4936720;29;20193;-70
2022/11/12 01:44:16;;;;;;;25.77;22.63;;;;;;;9.53;69.60;96208.13;4932872;29;20213;-70
2022/11/12 01:47:09;;;;;;;27.70;23.87;;;;;;;9.65;68.94;96195.84;4933811;29;20580;-70
2022/11/12 01:49:51;;;;;;;24.23;21.63;;;;;;;9.46;69.36;96201.66;4929498;29;20704;-69
2022/11/12 01:52:32;;;;;;;25.87;23.10;;;;;;;9.45;69.55;96206.06;4930373;29;20345;-69
2022/11/12 01:55:03;;;;;;;25.87;22.40;;;;;;;9.52;69.12;96209.09;4929423;29;20197;-70
2022/11/12 01:57:35;;;;;;;24.97;22.03;;;;;;;9.36;69.49;96205.94;4932282;29;20189;-70
2022/11/12 02:00:07;;;;;;;26.60;22.07;;;;;;;9.40;69.56;96204.75;4933948;29;20193;-70
2022/11/12 02:02:35;;;;;;;22.20;19.23;;;;;;;9.45;69.20;96203.44;4934226;29;20217;-70
2022/11/12 02:05:01;;;;;;;23.80;20.40;;;;;;;9.44;68.75;96199.16;4933603;29;20201;-70
2022/11/12 02:07:28;;;;;;;25.87;21.50;;;;;;;9.50;68.97;96201.31;4935233;29;20237;-70
2022/11/12 02:09:54;;;;;;;25.37;21.17;;;;;;;9.50;68.73;96197.84;4937351;29;20327;-70
2022/11/12 02:15:05;;;;;;;20.07;17.97;;;;;;;9.37;69.13;96194.47;4934797;29;20209;-70
2022/11/12 02:17:30;;;;;;;21.57;19.27;;;;;;;9.41;68.42;96199.41;4930344;29;20178;-69
2022/11/12 02:19:58;;;;;;;19.73;17.67;;;;;;;9.28;68.95;96204.72;4931934;29;20205;-69
2022/11/12 02:22:24;;;;;;;21.37;19.03;;;;;;;9.31;68.93;96206.28;4935848;29;20193;-70
2022/11/12 02:24:49;;;;;;;22.23;18.90;;;;;;;9.36;69.38;96211.19;4932714;29;20186;-69
2022/11/12 02:27:14;;;;;;;22.03;19.37;;;;;;;9.22;69.90;96213.06;4930391;29;20272;-69
2022/11/12 02:29:45;;;;;;;23.03;20.43;;;;;;;9.20;70.28;96212.31;4927293;29;20246;-69
2022/11/12 02:32:12;;;;;;;22.70;18.67;;;;;;;9.14;70.53;96206.69;4932719;29;20181;-69
2022/11/12 02:34:38;;;;;;;21.60;17.57;;;;;;;9.03;70.43;96197.84;4933266;29;20269;-69
2022/11/12 02:37:04;;;;;;;21.03;18.67;;;;;;;8.98;70.82;96205.22;4936542;29;20189;-69
2022/11/12 02:39:29;;;;;;;21.40;18.33;;;;;;;8.98;71.03;96199.97;4936540;29;20226;-69
2022/11/12 02:41:55;;;;;;;20.83;18.03;;;;;;;9.05;70.54;96213.44;4933198;29;20190;-69
2022/11/12 02:44:20;;;;;;;15.93;14.30;;;;;;;8.90;70.61;96204.94;4932971;29;20570;-69
2022/11/12 02:46:46;;;;;;;16.00;14.17;;;;;;;9.07;69.52;96202.84;4933594;29;20806;-69
2022/11/12 02:49:11;;;;;;;14.77;13.27;;;;;;;9.00;69.53;96197.22;4935093;29;20182;-70
2022/11/12 02:51:36;;;;;;;16.20;13.30;;;;;;;8.89;69.68;96181.44;4934729;29;20178;-69
2022/11/12 02:54:02;;;;;;;14.57;12.83;;;;;;;8.98;69.99;96199.09;4934121;29;20181;-69
2022/11/12 02:56:27;;;;;;;13.23;11.80;;;;;;;8.96;69.57;96201.03;4932002;29;20226;-69
2022/11/12 02:58:53;;;;;;;14.43;11.07;;;;;;;8.98;69.15;96193.84;4933971;29;20915;-69
2022/11/12 03:01:18;;;;;;;11.47;10.20;;;;;;;9.03;68.57;96189.97;4931690;29;20183;-69
2022/11/12 03:03:44;;;;;;;13.27;11.50;;;;;;;9.09;68.47;96190.44;4928174;29;20198;-69
2022/11/12 03:06:09;;;;;;;13.13;11.70;;;;;;;9.18;67.65;96189.78;4934014;29;20233;-69
2022/11/12 03:08:35;;;;;;;13.83;11.47;;;;;;;9.13;67.71;96195.34;4934481;29;20196;-70
2022/11/12 03:11:06;;;;;;;13.27;11.90;;;;;;;9.10;67.87;96192.97;4932110;29;20649;-70
2022/11/12 03:13:31;;;;;;;14.33;11.67;;;;;;;9.03;68.63;96194.34;4933425;29;20239;-69
2022/11/12 03:16:00;;;;;;;15.03;13.30;;;;;;;9.11;68.45;96199.03;4932012;29;21187;-69
2022/11/12 03:18:26;;;;;;;15.60;13.30;;;;;;;8.93;68.96;96194.22;4931841;29;20528;-69
2022/11/12 03:20:51;;;;;;;14.80;12.40;;;;;;;8.74;69.57;96192.09;4928125;29;20214;-69
2022/11/12 03:23:17;;;;;;;15.13;13.53;;;;;;;8.80;69.62;96204.75;4932079;29;20209;-70
2022/11/12 03:25:43;;;;;;;14.17;12.47;;;;;;;8.84;69.30;96210.63;4929329;29;20194;-70
2022/11/12 03:28:12;;;;;;;15.40;12.43;;;;;;;8.76;69.69;96205.91;4932810;29;20210;-68
2022/11/12 03:30:40;;;;;;;14.77;11.87;;;;;;;8.73;69.64;96203.53;4931638;29;20185;-69
2022/11/12 03:33:06;;;;;;;13.80;12.40;;;;;;;8.69;70.11;96209.97;4930186;29;20640;-68
2022/11/12 03:35:33;;;;;;;11.93;10.73;;;;;;;8.62;70.11;96203.47;4934211;29;20189;-68
2022/11/12 03:37:59;;;;;;;12.97;11.67;;;;;;;8.77;69.83;96202.38;4930509;29;20329;-69
2022/11/12 03:40:25;;;;;;;12.67;11.37;;;;;;;8.77;69.81;96202.38;4933275;29;20194;-68
2022/11/12 03:42:52;;;;;;;13.87;12.20;;;;;;;8.92;69.28;96202.19;4932897;29;20182;-69
2022/11/12 03:45:19;;;;;;;14.57;11.67;;;;;;;8.79;69.38;96210.97;4926958;29;20194;-69
2022/11/12 03:47:48;;;;;;;15.73;13.47;;;;;;;8.65;69.84;96203.25;4930197;29;20221;-69
2022/11/12 03:50:15;;;;;;;13.87;12.40;;;;;;;8.58;70.62;96202.00;4926110;29;20545;-68
2022/11/12 03:52:46;;;;;;;12.97;11.47;;;;;;;8.51;71.01;96209.47;4928852;29;20182;-69
2022/11/12 03:55:13;;;;;;;16.87;13.20;;;;;;;8.63;70.74;96197.28;4941288;29;20177;-69
2022/11/12 03:57:38;;;;;;;14.43;12.03;;;;;;;8.54;70.61;96200.56;4928615;29;20248;-69
2022/11/12 04:00:05;;;;;;;13.33;11.93;;;;;;;8.53;71.31;96206.75;4931953;29;20186;-69
2022/11/12 04:02:31;;;;;;;14.37;11.80;;;;;;;8.47;71.30;96210.63;4928315;29;20229;-69
2022/11/12 04:10:25;;;;;;;12.90;11.03;;;;;;;8.37;71.08;96205.19;4924588;29;20258;-68
2022/11/12 04:15:34;;;;;;;12.17;10.90;;;;;;;8.22;71.84;96195.78;4924718;29;20654;-68
2022/11/12 04:23:28;;;;;;;11.03;9.33;;;;;;;8.20;71.25;96191.59;4929504;29;20205;-69
2022/11/12 04:28:37;;;;;;;11.80;10.60;;;;;;;8.18;71.24;96181.25;4928475;29;20724;-69
2022/11/12 04:31:03;;;;;;;11.70;10.50;;;;;;;8.07;71.22;96179.38;4930482;29;20185;-68
2022/11/12 04:33:29;;;;;;;12.70;10.13;;;;;;;8.05;71.33;96175.22;4931730;29;20236;-68
2022/11/12 04:35:54;;;;;;;13.53;9.27;;;;;;;7.93;71.03;96182.94;4929940;29;20216;-69
2022/11/12 04:38:20;;;;;;;9.93;8.70;;;;;;;7.89;71.25;96191.97;4924158;29;20193;-68
2022/11/12 04:46:13;;;;;;;12.00;10.77;;;;;;;7.93;71.34;96192.59;4926814;29;20664;-69
2022/11/12 04:48:39;;;;;;;12.93;10.40;;;;;;;7.93;71.53;96188.19;4930136;29;20190;-69
2022/11/12 04:53:53;;;;;;;14.67;10.63;;;;;;;7.91;71.54;96195.34;4856399;29;20248;-69
2022/11/12 04:56:19;;;;;;;11.10;9.57;;;;;;;7.82;71.75;96205.59;4835059;29;20232;-69
2022/11/12 04:58:44;;;;;;;12.53;10.67;;;;;;;7.85;72.10;96200.16;4839277;29;20308;-69
2022/11/12 05:01:10;;;;;;;10.10;9.10;;;;;;;7.90;71.28;96209.34;4841372;29;20215;-69
2022/11/12 05:03:35;;;;;;;9.80;8.00;;;;;;;7.68;71.96;96207.38;4855221;29;20184;-69
2022/11/12 05:06:03;;;;;;;11.20;10.07;;;;;;;7.97;71.42;96215.03;4856495;29;20204;-69
2022/11/12 05:08:29;;;;;;;11.63;10.37;;;;;;;7.91;71.53;96205.81;4855416;29;20965;-65
2022/11/12 05:10:54;;;;;;;11.50;9.67;;;;;;;7.98;71.56;96216.69;4847178;29;20223;-65
2022/11/12 05:13:19;;;;;;;11.23;8.40;;;;;;;7.93;71.03;96209.13;4862414;29;20279;-65
2022/11/12 05:15:45;;;;;;;9.73;8.83;;;;;;;8.08;70.29;96222.13;4841965;29;20188;-65
2022/11/12 05:18:10;;;;;;;10.83;8.47;;;;;;;8.06;69.96;96221.41;4861735;29;20199;-65
2022/11/12 05:20:36;;;;;;;9.27;8.37;;;;;;;8.10;69.89;96230.69;4846281;29;20687;-64
2022/11/12 05:23:01;;;;;;;9.93;7.80;;;;;;;8.10;69.36;96220.22;4862372;29;20687;-65
2022/11/12 05:25:27;;;;;;;9.67;8.67;;;;;;;8.21;69.19;96233.44;4840452;29;20240;-66
2022/11/12 05:27:52;;;;;;;9.13;7.77;;;;;;;8.13;68.64;96236.59;4861280;29;20304;-66
2022/11/12 05:30:17;;;;;;;8.30;7.47;;;;;;;8.08;68.75;96230.00;4860340;29;20731;-66
2022/11/12 05:32:43;;;;;;;8.40;7.10;;;;;;;8.19;68.29;96230.06;4937395;29;20208;-66
2022/11/12 05:35:08;;;;;;;11.73;8.20;;;;;;;8.25;68.03;96231.44;4946865;29;20197;-66
2022/11/12 05:37:34;;;;;;;10.97;8.20;;;;;;;8.20;67.65;96239.59;4936051;29;20235;-66
2022/11/12 05:39:59;;;;;;;7.23;6.53;;;;;;;8.24;67.33;96241.06;4932281;29;20194;-66
2022/11/12 05:42:24;;;;;;;9.60;7.33;;;;;;;8.24;67.48;96241.06;4948887;29;20261;-65
2022/11/12 05:44:50;;;;;;;8.87;7.03;;;;;;;8.29;67.01;96243.38;4932526;29;20196;-67
2022/11/12 05:47:15;;;;;;;7.43;6.70;;;;;;;8.31;67.23;96238.84;4936588;29;20228;-66
2022/11/12 05:49:41;;;;;;;10.43;7.03;;;;;;;8.41;66.39;96233.84;4936033;29;20282;-65
2022/11/12 05:52:06;;;;;;;7.57;6.77;;;;;;;8.48;65.49;96235.09;4936993;29;20189;-65
2022/11/12 05:54:32;;;;;;;8.23;7.40;;;;;;;8.45;65.71;96235.31;4934848;29;20197;-65
2022/11/12 05:56:57;;;;;;;8.77;7.80;;;;;;;8.49;64.96;96232.34;4940013;29;20316;-65
2022/11/12 05:59:23;;;;;;;12.80;8.70;;;;;;;8.62;64.82;96242.78;4936692;29;20194;-65
2022/11/12 06:01:48;;;;;;;9.57;8.37;;;;;;;8.55;64.96;96236.31;4933766;29;20189;-65
2022/11/12 06:04:15;;;;;;;10.23;7.77;;;;;;;8.65;64.43;96244.38;4937221;29;20193;-65
2022/11/12 06:06:42;;;;;;;8.90;8.00;;;;;;;8.69;63.81;96249.28;4938578;29;20238;-65
2022/11/12 06:09:08;;;;;;;9.63;7.77;;;;;;;8.78;64.18;96247.78;4935572;29;20648;-64
2022/11/12 06:11:34;;;;;;;10.47;7.60;;;;;;;8.64;65.20;96251.41;4935795;29;20189;-65
2022/11/12 06:14:00;;;;;;;9.70;7.33;;;;;;;8.78;64.55;96250.41;4933820;29;20200;-65
2022/11/12 06:16:26;;;;;;;12.27;8.43;;;;;;;8.79;65.24;96255.56;4935923;29;20189;-65
2022/11/12 06:18:52;;;;;;;9.97;8.00;;;;;;;8.99;64.13;96255.88;4936247;29;20189;-66
2022/11/12 06:21:23;;;;;;;14.10;7.80;;;;;;;8.98;63.67;96255.06;4933841;29;20215;-65
2022/11/12 06:23:58;;;;;;;8.40;7.47;;;;;;;8.95;62.75;96257.03;4931421;29;20194;-67
2022/11/12 06:26:26;;;;;;;8.23;7.27;;;;;;;8.90;63.04;96248.66;4934683;29;20185;-67
2022/11/12 06:28:52;;;;;;;9.17;7.03;;;;;;;8.89;62.76;96255.72;4933920;29;20193;-66
2022/11/12 06:31:18;;;;;;;8.37;6.90;;;;;;;8.88;62.39;96251.41;4932780;29;20182;-67
2022/11/12 06:33:45;;;;;;;8.23;6.53;;;;;;;9.03;61.69;96257.31;4926958;29;20346;-66
2022/11/12 06:36:12;;;;;;;8.10;7.37;;;;;;;9.01;61.19;96243.50;4925976;29;20539;-66
2022/11/12 06:38:39;;;;;;;7.80;7.00;;;;;;;8.99;61.30;96251.47;4930149;29;20193;-66
2022/11/12 06:41:06;;;;;;;8.10;6.63;;;;;;;8.98;60.99;96255.06;4924835;29;20194;-68
2022/11/12 06:43:32;;;;;;;7.40;6.70;;;;;;;8.99;60.74;96256.72;4931311;29;20190;-68
2022/11/12 06:46:03;;;;;;;7.50;6.80;;;;;;;8.87;59.45;96267.25;4932761;29;20284;-66
2022/11/12 06:48:29;;;;;;;8.13;6.07;;;;;;;9.01;59.12;96264.50;4930936;29;20679;-67
2022/11/12 06:50:56;;;;;;;7.00;6.40;;;;;;;9.05;58.81;96268.56;4934172;29;20606;-68
2022/11/12 06:53:21;;;;;;;6.37;5.77;;;;;;;9.08;58.57;96267.50;4932417;29;20186;-66
2022/11/12 06:55:47;;;;;;;10.07;6.67;;;;;;;9.14;58.74;96270.53;4933356;29;20316;-66
2022/11/12 06:58:12;;;;;;;7.60;6.40;;;;;;;9.16;58.55;96263.34;4930042;29;20189;-66
2022/11/12 07:00:38;;;;;;;8.03;6.90;;;;;;;9.16;58.92;96267.75;4925149;29;20186;-67
2022/11/12 07:03:07;;;;;;;7.83;7.10;;;;;;;9.11;58.79;96265.47;4931769;29;20186;-67
2022/11/12 07:05:36;;;;;;;8.83;7.63;;;;;;;9.17;58.24;96269.47;4928662;29;20190;-67
2022/11/12 07:08:01;;;;;;;10.53;8.13;;;;;;;9.27;58.45;96266.06;4931025;29;20210;-67
2022/11/12 07:10:27;;;;;;;7.73;6.97;;;;;;;9.27;58.51;96258.19;4932956;29;20190;-66
2022/11/12 07:12:52;;;;;;;8.33;7.53;;;;;;;9.39;58.31;96268.72;4933179;29;20947;-66
2022/11/12 07:15:18;;;;;;;8.87;7.97;;;;;;;9.40;57.99;96259.88;4931356;29;20190;-67
2022/11/12 07:17:45;;;;;;;9.50;8.47;;;;;;;9.52;57.97;96251.09;4931967;29;20212;-67
2022/11/12 07:20:11;;;;;;;10.33;7.60;;;;;;;9.59;57.71;96248.81;4932727;29;20181;-67
2022/11/12 07:22:36;;;;;;;8.53;7.27;;;;;;;9.63;57.13;96250.28;4923059;29;20617;-67
2022/11/12 07:25:02;;;;;;;8.23;7.43;;;;;;;9.69;56.27;96250.66;4926098;29;20209;-67
2022/11/12 07:27:29;;;;;;;7.87;7.07;;;;;;;9.79;56.12;96252.59;4912874;29;20213;-65
2022/11/12 07:29:55;;;;;;;7.83;7.03;;;;;;;9.91;55.71;96259.53;4927891;29;20560;-64
2022/11/12 07:32:20;;;;;;;10.27;7.53;;;;;;;9.86;55.66;96262.53;4927607;29;20190;-65
2022/11/12 07:34:46;;;;;;;6.93;6.23;;;;;;;9.93;54.99;96252.38;4932757;29;20261;-65
2022/11/12 07:37:11;;;;;;;6.90;5.80;;;;;;;9.87;55.11;96253.66;4930745;29;20189;-66
2022/11/12 07:39:36;;;;;;;7.33;6.63;;;;;;;9.77;54.87;96259.75;4924378;29;20265;-66
2022/11/12 07:42:02;;;;;;;7.07;5.83;;;;;;;9.92;54.52;96255.97;4930910;29;20281;-66
2022/11/12 07:44:27;;;;;;;7.10;5.83;;;;;;;9.96;54.27;96254.75;4932472;29;20206;-65
2022/11/12 07:46:53;;;;;;;7.57;6.33;;;;;;;10.11;53.86;96258.00;4931743;29;20206;-65
2022/11/12 07:49:18;;;;;;;6.00;5.40;;;;;;;10.28;53.32;96251.47;4931187;29;20346;-64
2022/11/12 07:51:44;;;;;;;6.07;5.57;;;;;;;10.27;52.80;96249.78;4928943;29;20289;-65
2022/11/12 07:54:09;;;;;;;7.03;5.10;;;;;;;10.36;52.55;96256.97;4927867;29;20189;-65
2022/11/12 07:56:35;;;;;;;6.57;5.23;;;;;;;10.45;52.36;96251.00;4929530;29;20312;-65
2022/11/12 07:59:00;;;;;;;6.87;5.80;;;;;;;10.54;51.97;96257.31;4925006;29;20196;-65
2022/11/12 08:01:32;;;;;;;6.03;5.43;;;;;;;10.35;52.68;96250.03;4933440;29;20185;-65
2022/11/12 08:04:02;;;;;;;6.77;6.07;;;;;;;10.31;52.78;96262.56;4927161;29;20193;-67
2022/11/12 08:06:29;;;;;;;6.83;6.13;;;;;;;10.35;52.98;96264.00;4924716;29;20193;-67
2022/11/12 08:08:56;;;;;;;8.20;5.57;;;;;;;10.29;52.70;96264.50;4920586;29;20209;-64
2022/11/12 08:11:22;;;;;;;7.73;5.80;;;;;;;10.29;52.77;96267.13;4927750;29;20182;-65
2022/11/12 08:13:49;;;;;;;6.40;5.70;;;;;;;10.34;52.44;96272.00;4931627;29;20193;-67
2022/11/12 08:16:15;;;;;;;8.20;5.87;;;;;;;10.33;52.53;96268.53;4930950;29;20186;-65
2022/11/12 08:18:41;;;;;;;6.50;5.77;;;;;;;10.33;52.64;96268.53;4925404;29;20269;-64
2022/11/12 08:21:10;;;;;;;7.10;5.70;;;;;;;10.36;52.41;96270.09;4925846;29;20226;-67
2022/11/12 08:23:36;;;;;;;7.73;6.30;;;;;;;10.42;52.50;96277.50;4933885;29;20204;-66
2022/11/12 08:26:04;;;;;;;6.97;6.17;;;;;;;10.38;52.74;96271.66;4941898;29;20178;-66
2022/11/12 08:28:31;;;;;;;8.43;6.40;;;;;;;10.38;52.55;96273.47;4926308;29;20898;-66
2022/11/12 08:31:02;;;;;;;7.77;6.40;;;;;;;10.46;52.01;96276.31;4924137;29;20615;-66
2022/11/12 08:33:28;;;;;;;6.60;5.90;;;;;;;10.43;52.09;96281.81;4926884;29;20200;-66
2022/11/12 08:35:54;;;;;;;6.57;5.97;;;;;;;10.58;52.02;96282.41;4927341;29;20252;-66
2022/11/12 08:38:19;;;;;;;13.33;7.27;;;;;;;10.67;51.70;96279.06;4928753;29;20185;-66
2022/11/12 08:40:45;;;;;;;6.77;6.00;;;;;;;10.79;51.39;96280.69;4932278;29;20654;-66
2022/11/12 08:43:10;;;;;;;7.37;5.67;;;;;;;10.89;51.12;96282.63;4932062;29;20201;-66
2022/11/12 08:45:38;;;;;;;6.17;4.57;;;;;;;10.75;51.21;96278.47;4928674;29;20215;-66
2022/11/12 08:48:07;;;;;;;7.63;4.90;;;;;;;10.81;51.01;96281.41;4945376;29;20198;-66
2022/11/12 08:50:33;;;;;;;6.93;4.83;;;;;;;10.76;50.76;96280.13;4926105;29;20250;-66
2022/11/12 08:53:04;;;;;;;6.03;4.97;;;;;;;10.93;50.32;96284.03;4928979;29;20273;-66
2022/11/12 08:55:32;;;;;;;4.73;4.33;;;;;;;11.10;49.65;96285.31;4925478;29;20252;-66
2022/11/12 08:58:00;;;;;;;5.27;4.57;;;;;;;11.16;49.67;96279.56;4928991;29;20217;-66
2022/11/12 09:00:31;;;;;;;5.17;4.73;;;;;;;11.41;49.05;96281.88;4925260;29;20190;-67
2022/11/12 09:02:59;;;;;;;5.73;5.23;;;;;;;11.46;49.24;96274.41;4931947;29;20954;-67
2022/11/12 09:05:25;;;;;;;5.93;4.90;;;;;;;11.56;48.83;96273.66;4931306;29;20196;-65
2022/11/12 09:08:05;;;;;;;5.10;4.60;;;;;;;11.45;48.71;96269.28;4933842;29;20213;-64
2022/11/12 09:10:31;;;;;;;5.73;4.97;;;;;;;11.26;49.20;96267.31;4925086;29;20240;-65
2022/11/12 09:12:57;;;;;;;5.32;4.82;;;;;;;11.35;49.79;96274.44;4925900;29;20194;-65
2022/11/12 09:15:24;;;;;;;5.50;4.93;;;;;;;11.41;49.55;96262.56;4928996;29;20245;-65
2022/11/12 09:18:01;;;;;;;9.50;7.30;;;;;;;11.67;48.62;96265.69;4925917;29;20204;-65
2022/11/12 09:20:27;;;;;;;6.90;5.27;;;;;;;11.61;48.65;96269.69;4942344;29;20181;-65
2022/11/12 09:22:58;;;;;;;4.97;4.57;;;;;;;11.77;48.13;96271.03;4924957;29;20194;-64
2022/11/12 09:25:23;;;;;;;4.90;4.30;;;;;;;11.62;48.43;96271.34;4927175;29;20276;-65
2022/11/12 09:27:48;;;;;;;5.07;4.57;;;;;;;11.58;48.36;96275.19;4932232;29;20206;-66
2022/11/12 09:30:14;;;;;;;4.90;4.43;;;;;;;11.67;48.30;96274.44;4922531;29;20193;-65
2022/11/12 09:32:40;;;;;;;5.30;4.80;;;;;;;11.39;49.19;96268.00;4931527;29;20186;-65
2022/11/12 09:35:06;;;;;;;5.50;4.93;;;;;;;11.27;49.58;96269.81;4931907;29;20204;-65
2022/11/12 09:37:31;;;;;;;6.93;5.13;;;;;;;11.22;50.05;96268.50;4925916;29;20552;-65
2022/11/12 09:39:56;;;;;;;4.67;4.27;;;;;;;11.20;50.08;96266.03;4931538;29;20189;-65
2022/11/12 09:42:22;;;;;;;5.20;4.70;;;;;;;11.06;50.75;96268.09;4929693;29;20221;-64
2022/11/12 09:45:31;;;;;;;6.17;4.63;;;;;;;10.86;51.40;96269.72;4923964;29;20186;-65
2022/11/12 09:48:01;;;;;;;4.80;4.40;;;;;;;10.69;52.03;96269.25;4928809;29;20212;-67
2022/11/12 09:50:32;;;;;;;5.43;3.97;;;;;;;10.72;51.53;96276.91;4943033;29;20608;-67
2022/11/12 09:53:23;;;;;;;4.22;3.47;;;;;;;10.71;50.27;96274.38;4924704;29;20182;-66
2022/11/12 09:55:49;;;;;;;3.73;3.20;;;;;;;10.79;49.44;96279.88;4889284;29;20337;-65
2022/11/12 09:58:17;;;;;;;4.00;3.10;;;;;;;10.72;49.68;96273.41;4878252;29;20627;-65
2022/11/12 10:00:58;;;;;;;4.47;2.78;;;;;;;10.94;48.98;96275.19;4881033;29;20217;-66
2022/11/12 10:03:38;;;;;;;3.37;3.07;;;;;;;10.96;49.01;96268.84;4879297;29;20235;-66
2022/11/12 10:06:14;;;;;;;3.00;2.70;;;;;;;10.92;48.97;96266.56;4891962;29;20190;-65
2022/11/12 10:08:54;;;;;;;3.77;3.37;;;;;;;10.98;49.14;96266.91;4879401;29;20217;-66
2022/11/12 10:14:49;;;;;;;4.73;3.70;;;;;;;11.17;49.04;96278.59;4890921;29;20265;-66
2022/11/12 10:17:31;;;;;;;3.77;3.37;;;;;;;11.19;48.54;96266.13;4892793;29;20896;-66
2022/11/12 10:20:21;;;;;;;3.50;3.20;;;;;;;11.16;48.90;96274.28;4876680;29;20206;-66
2022/11/12 10:22:57;;;;;;;4.77;3.17;;;;;;;11.28;48.25;96268.03;4876829;29;20215;-66
2022/11/12 10:25:24;;;;;;;3.53;3.13;;;;;;;11.32;48.70;96269.44;4891639;29;20243;-66
2022/11/12 10:27:50;;;;;;;3.80;3.37;;;;;;;11.21;48.80;96266.84;4880102;29;20568;-66
2022/11/12 10:30:21;;;;;;;3.73;3.40;;;;;;;11.23;48.75;96275.47;4883156;29;20668;-66
2022/11/12 10:32:48;;;;;;;3.50;3.20;;;;;;;11.18;49.06;96269.75;4909222;29;20202;-66
2022/11/12 10:35:19;;;;;;;3.57;3.20;;;;;;;11.09;49.17;96265.22;4928971;29;20256;-66
2022/11/12 10:37:59;;;;;;;3.80;3.50;;;;;;;10.94;49.82;96270.75;4946214;29;20185;-66
2022/11/12 10:40:39;;;;;;;4.23;3.60;;;;;;;11.08;49.61;96263.53;4924557;29;20762;-66
2022/11/12 10:43:20;;;;;;;4.47;3.80;;;;;;;10.90;50.76;96268.50;4930340;29;20185;-66
2022/11/12 10:45:48;;;;;;;4.40;3.77;;;;;;;10.94;51.48;96273.38;4935972;29;20293;-66
2022/11/12 10:48:27;;;;;;;3.93;3.23;;;;;;;10.93;51.84;96263.84;4932663;29;20580;-66
2022/11/12 10:50:53;;;;;;;3.73;3.30;;;;;;;10.71;52.84;96269.13;4923480;29;20190;-66
2022/11/12 10:53:37;;;;;;;5.07;3.67;;;;;;;10.78;52.97;96271.16;4929099;29;20394;-66
2022/11/12 10:56:20;;;;;;;5.97;3.67;;;;;;;10.87;53.42;96268.75;4940074;29;20234;-66
2022/11/12 10:59:05;;;;;;;3.10;2.90;;;;;;;10.92;53.43;96275.31;4930600;29;20541;-67
2022/11/12 11:01:31;;;;;;;3.87;3.47;;;;;;;10.88;53.70;96257.25;4925969;29;20326;-66
2022/11/12 11:03:57;;;;;;;4.07;3.67;;;;;;;11.12;53.00;96278.13;4926638;29;20200;-66
2022/11/12 11:06:25;;;;;;;3.53;3.23;;;;;;;11.06;52.80;96273.34;4930654;29;20185;-67
2022/11/12 11:09:10;;;;;;;4.43;3.33;;;;;;;11.04;53.05;96266.44;4912944;29;20197;-66
2022/11/12 11:11:36;;;;;;;3.40;3.10;;;;;;;11.14;51.52;96269.13;4946013;29;20288;-66
2022/11/12 11:14:22;;;;;;;3.77;3.33;;;;;;;11.17;51.71;96265.41;4933481;29;20777;-66
2022/11/12 11:16:51;;;;;;;4.40;3.60;;;;;;;11.03;51.64;96263.91;4936647;29;20584;-67
2022/11/12 11:19:16;;;;;;;4.07;3.77;;;;;;;11.19;51.91;96258.25;4943158;28;20349;-66
2022/11/12 11:21:48;;;;;;;4.07;3.17;;;;;;;11.12;52.51;96262.31;4929539;29;20276;-66
2022/11/12 11:24:38;;;;;;;6.67;3.07;;;;;;;11.04;52.63;96265.59;4925006;29;20677;-66
2022/11/12 11:27:22;;;;;;;18.77;16.77;;;;;;;11.24;51.73;96267.44;4941107;29;20225;-66
2022/11/12 11:29:53;;;;;;;14.93;13.40;;;;;;;11.29;51.29;96264.44;4944220;29;20272;-66
2022/11/12 11:32:19;;;;;;;4.40;4.00;;;;;;;11.13;51.92;96264.84;4926484;29;20287;-66
2022/11/12 11:35:10;;;;;;;3.70;3.10;;;;;;;11.17;51.79;96255.75;4932019;29;20556;-67
2022/11/12 11:38:00;;;;;;;3.40;3.10;;;;;;;11.16;51.37;96256.69;4925179;29;20185;-66
2022/11/12 11:40:28;;;;;;;4.13;3.50;;;;;;;11.15;51.61;96264.72;4882421;29;20297;-67
2022/11/12 11:43:07;;;;;;;3.87;3.40;;;;;;;11.10;51.63;96259.00;4865630;29;20211;-65
2022/11/12 11:45:44;;;;;;;3.73;3.13;;;;;;;11.25;51.27;96265.63;4879640;29;20211;-65
2022/11/12 11:48:34;;;;;;;5.63;3.07;;;;;;;11.15;51.40;96262.09;4889471;29;20574;-65
2022/11/12 11:51:18;;;;;;;4.87;3.20;;;;;;;11.14;53.29;96260.41;4887127;29;20227;-67
2022/11/12 11:53:56;;;;;;;4.47;3.33;;;;;;;11.22;51.39;96260.63;4873254;29;20676;-68
2022/11/12 11:56:30;;;;;;;3.53;3.20;;;;;;;10.85;52.55;96255.69;4893411;29;20235;-68
2022/11/12 11:59:06;;;;;;;3.53;3.00;;;;;;;10.79;52.80;96253.56;4882283;29;20217;-67
2022/11/12 12:01:49;;;;;;;5.67;3.40;;;;;;;10.95;52.34;96261.06;4892169;29;20217;-65
2022/11/12 12:04:36;;;;;;;5.93;3.07;;;;;;;11.14;52.17;96260.41;4880111;29;20591;-66
2022/11/12 12:07:34;;;;;;;5.00;3.30;;;;;;;11.17;52.10;96252.25;4891174;29;20247;-67
2022/11/12 12:10:03;;;;;;;5.47;3.17;;;;;;;11.04;51.79;96253.28;4877628;29;20194;-66